Etusivu
METAR-TAF:

METAR-TAF

Lentoasemat :

Cayenne, Ranskan Guayana

Leveyspiiri: 04-50N, Pituuspiiri: 052-22W, korkeus merenpinnasta: 105 m

Tämänhetkinen sää

Tämä raportti tehtiin 33 minuuttia sitten, kello 22.00 UTC
Tuuli 7 kn idästä
Lämpötila 28°C
Kosteus 79%
Ilmanpaine 1012 hPa
Näkyvyys 10 km tai enemmän
ei pilviä alle 1500 m:ssä eikä cumulonimbus-pilviä

METAR: SOCA 192200Z AUTO 09007KT CAVOK 28/24 Q1012 NOSIG

Aika: 19:33 (22:33 UTC)

Sääennuste

Tämä raportti tehtiin 5 tuntia ja 33 minuuttia sitten, kello 17.00 UTC
Ennuste voimassa 19. päivästä klo 18 UTC - 20. päivään klo 18 UTC
Tuuli 10 kn idästä
Näkyvyys 10 km tai enemmän
Muutamia pilviä 3500 ft:n korkeudessa
Tulossa
19. päivästä klo 22 UTC - 19. päivään klo 23 UTC
Tuuli 3 kn eri suunnista
From 20. päivästä klo 1100 UTC
Tuuli 10 kn idästä/kaakosta
Näkyvyys 10 km tai enemmän
Muutamia pilviä 2800 ft:n korkeudessa

TAF: SOCA 191700Z 1918/2018 09010KT 9999 FEW035 BECMG 1922/1923 VRB03KT FM201100 11010KT 9999 FEW028

Säähavainnot ja -ennusteet yli 4000 lentoasemalta (METAR- ja TAF-raportit).

Käytössä olevat sääasemat on merkitty karttaan keltaisilla ja punaisilla pisteillä.

Aseta hiiri pisteen päälle nähdäksesi sääaseman nimen.

Klikkaa sitten nähdäksesi säähavainnot ja -ennusteet.

Kartan vaihtaminen: klikkaa mustalla rastilla varustettuja vihreitä pisteitä, niin voit zoomata sisään; viivalla varustettua vihreää pistettä, niin voit zoomata ulos tai vihreitä nuolia, niin pääset viereisille kartoille.


METAR-TAF: